createdAt,value
2022-07-29T00:02:02.543Z,2.10
2022-07-29T00:04:32.588Z,2.70
2022-07-29T00:07:02.629Z,2.40
2022-07-29T00:09:34.091Z,1.60
2022-07-29T00:12:26.125Z,1.42
2022-07-29T00:14:58.013Z,1.60
2022-07-29T00:17:28.485Z,1.30
2022-07-29T00:19:59.939Z,1.63
2022-07-29T00:22:29.940Z,1.40
2022-07-29T00:25:01.513Z,1.80
2022-07-29T00:27:31.533Z,1.23
2022-07-29T00:30:01.400Z,1.55
2022-07-29T00:32:31.270Z,1.65
2022-07-29T00:35:18.231Z,1.30
2022-07-29T00:37:48.162Z,1.42
2022-07-29T00:40:19.691Z,1.65
2022-07-29T00:42:55.075Z,1.33
2022-07-29T00:45:25.229Z,1.90
2022-07-29T00:47:55.191Z,1.52
2022-07-29T00:53:05.453Z,1.60
2022-07-29T00:55:35.437Z,1.27
2022-07-29T00:58:05.663Z,1.48
2022-07-29T01:00:35.767Z,1.67
2022-07-29T01:03:06.132Z,1.52
2022-07-29T01:05:51.134Z,1.45
2022-07-29T01:08:25.011Z,1.40
2022-07-29T01:10:55.787Z,1.10
2022-07-29T01:13:26.616Z,1.38
2022-07-29T01:16:04.357Z,1.88
2022-07-29T01:18:39.119Z,1.35
2022-07-29T01:21:49.948Z,1.45
2022-07-29T01:24:43.509Z,1.67
2022-07-29T01:27:42.029Z,1.40
2022-07-29T01:30:15.679Z,1.42
2022-07-29T01:32:50.691Z,1.63
2022-07-29T01:35:26.320Z,1.45
2022-07-29T01:38:04.111Z,1.52
2022-07-29T01:40:43.874Z,1.65
2022-07-29T01:43:20.413Z,1.20
2022-07-29T01:46:01.757Z,1.30
2022-07-29T01:48:42.333Z,1.25
2022-07-29T01:51:21.137Z,1.10
2022-07-29T01:53:58.510Z,1.20
2022-07-29T01:56:33.964Z,1.33
2022-07-29T01:59:07.272Z,1.30
2022-07-29T02:01:39.853Z,1.15
2022-07-29T02:04:29.266Z,1.42
2022-07-29T02:07:06.670Z,0.93
2022-07-29T02:09:39.608Z,1.05
2022-07-29T02:12:11.230Z,1.17
2022-07-29T02:14:47.746Z,1.03
2022-07-29T02:17:26.900Z,0.90
2022-07-29T02:20:01.168Z,1.20
2022-07-29T02:22:34.071Z,1.33
2022-07-29T02:25:05.250Z,1.35
2022-07-29T02:27:38.625Z,1.15
2022-07-29T02:30:12.854Z,1.10
2022-07-29T02:32:47.214Z,1.20
2022-07-29T02:35:18.979Z,2.35
2022-07-29T02:38:10.835Z,5.45
2022-07-29T02:40:43.679Z,2.88
2022-07-29T02:43:14.909Z,1.95
2022-07-29T02:45:46.248Z,1.77
2022-07-29T02:48:29.507Z,1.40
2022-07-29T02:51:09.676Z,1.52
2022-07-29T02:53:45.848Z,1.48
2022-07-29T02:56:20.209Z,1.85
2022-07-29T02:58:57.629Z,1.40
2022-07-29T03:01:31.059Z,1.85
2022-07-29T03:04:07.327Z,1.88
2022-07-29T03:06:39.095Z,1.60
2022-07-29T03:09:13.617Z,2.00
2022-07-29T03:11:50.422Z,1.73
2022-07-29T03:14:22.131Z,1.55
2022-07-29T03:16:53.690Z,1.67
2022-07-29T03:19:25.566Z,1.60
2022-07-29T03:21:55.568Z,1.08
2022-07-29T03:24:34.106Z,1.70
2022-07-29T03:27:05.029Z,3.17
2022-07-29T03:29:36.230Z,1.60
2022-07-29T03:32:09.044Z,1.67
2022-07-29T03:34:41.772Z,1.58
2022-07-29T03:37:12.110Z,1.52
2022-07-29T03:39:45.190Z,1.80
2022-07-29T03:42:18.455Z,1.88
2022-07-29T03:44:51.739Z,1.65
2022-07-29T03:47:47.960Z,1.33
2022-07-29T03:50:22.739Z,1.30
2022-07-29T03:54:07.855Z,1.50
2022-07-29T03:56:47.491Z,1.80
2022-07-29T03:59:18.886Z,1.92
2022-07-29T04:01:50.186Z,1.67
2022-07-29T04:04:20.706Z,1.45
2022-07-29T04:06:50.827Z,1.40
2022-07-29T04:09:22.398Z,1.33
2022-07-29T04:12:02.523Z,1.70
2022-07-29T04:14:35.733Z,1.48
2022-07-29T04:17:07.411Z,1.10
2022-07-29T04:19:37.750Z,1.43
2022-07-29T04:22:07.735Z,1.35
2022-07-29T04:24:41.845Z,1.25
2022-07-29T04:27:13.987Z,1.23
2022-07-29T04:29:55.977Z,0.98
2022-07-29T04:32:27.908Z,1.98
2022-07-29T04:34:57.881Z,1.40
2022-07-29T04:37:27.731Z,1.10
2022-07-29T04:39:59.310Z,1.25
2022-07-29T04:42:29.432Z,1.30
2022-07-29T04:45:01.367Z,1.17
2022-07-29T04:47:31.393Z,0.95
2022-07-29T04:50:01.288Z,1.40
2022-07-29T04:52:31.305Z,1.10
2022-07-29T04:55:02.745Z,1.75
2022-07-29T04:57:32.789Z,1.80
2022-07-29T05:00:02.789Z,1.20
2022-07-29T05:02:32.803Z,1.50
2022-07-29T05:05:02.900Z,1.40
2022-07-29T05:07:32.909Z,1.20
2022-07-29T05:10:04.449Z,1.50
2022-07-29T05:12:34.326Z,1.20
2022-07-29T05:15:04.236Z,1.25
2022-07-29T05:17:35.076Z,1.48
2022-07-29T05:20:05.312Z,1.92
2022-07-29T05:22:35.355Z,1.35
2022-07-29T05:25:09.301Z,1.58
2022-07-29T05:27:39.716Z,2.00
2022-07-29T05:30:11.497Z,1.90
2022-07-29T05:32:41.431Z,1.70
2022-07-29T05:35:12.736Z,1.25
2022-07-29T05:37:43.088Z,1.48
2022-07-29T05:40:14.971Z,1.38
2022-07-29T05:42:44.949Z,1.30
2022-07-29T05:45:15.167Z,1.10
2022-07-29T05:47:45.031Z,1.20
2022-07-29T05:50:15.137Z,1.10
2022-07-29T05:52:45.079Z,1.08
2022-07-29T05:55:16.779Z,1.10
2022-07-29T05:57:46.925Z,1.33
2022-07-29T06:00:17.970Z,0.90
2022-07-29T06:02:47.852Z,1.08
2022-07-29T06:05:19.131Z,1.20
2022-07-29T06:07:50.874Z,0.77
2022-07-29T06:10:26.086Z,0.90
2022-07-29T06:12:56.248Z,0.70
2022-07-29T06:15:26.488Z,1.02
2022-07-29T06:17:59.364Z,0.82
2022-07-29T06:20:32.543Z,1.08
2022-07-29T06:23:05.769Z,0.60
2022-07-29T06:25:38.028Z,0.80
2022-07-29T06:28:08.205Z,0.95
2022-07-29T06:30:38.229Z,0.68
2022-07-29T06:33:08.364Z,1.05
2022-07-29T06:35:41.801Z,0.50
2022-07-29T06:38:30.137Z,0.60
2022-07-29T06:41:03.940Z,0.88
2022-07-29T06:43:51.741Z,0.80
2022-07-29T06:46:25.782Z,0.80
2022-07-29T06:48:56.180Z,0.67
2022-07-29T06:54:03.770Z,0.60
2022-07-29T06:56:38.272Z,0.60
2022-07-29T06:59:09.120Z,0.77
2022-07-29T07:01:40.352Z,0.90
2022-07-29T07:04:10.854Z,0.57
2022-07-29T07:06:41.214Z,0.70
2022-07-29T07:09:12.629Z,0.60
2022-07-29T07:11:42.667Z,0.52
2022-07-29T07:14:12.506Z,0.70
2022-07-29T07:16:42.628Z,0.80
2022-07-29T07:19:12.585Z,0.47
2022-07-29T07:21:44.210Z,0.60
2022-07-29T07:24:15.779Z,0.55
2022-07-29T07:29:15.970Z,0.80
2022-07-29T07:31:46.948Z,0.73
2022-07-29T07:34:17.132Z,0.57
2022-07-29T07:36:58.792Z,0.65
2022-07-29T07:39:30.188Z,0.70
2022-07-29T07:42:00.209Z,0.70
2022-07-29T07:44:30.323Z,0.80
2022-07-29T07:47:03.864Z,0.70
2022-07-29T07:49:42.641Z,0.70
2022-07-29T07:52:15.227Z,0.80
2022-07-29T07:54:46.907Z,0.52
2022-07-29T07:57:17.635Z,1.08
2022-07-29T07:59:47.831Z,0.82
2022-07-29T08:02:17.959Z,1.10
2022-07-29T08:04:47.964Z,1.02
2022-07-29T08:07:18.043Z,1.02
2022-07-29T08:09:49.427Z,1.10
2022-07-29T08:12:19.455Z,1.00
2022-07-29T08:14:49.379Z,1.48
2022-07-29T08:17:19.291Z,0.90
2022-07-29T08:19:49.726Z,1.25
2022-07-29T08:22:19.626Z,0.93
2022-07-29T08:24:55.799Z,0.80
2022-07-29T08:27:43.062Z,0.90
2022-07-29T08:30:14.747Z,1.05
2022-07-29T08:32:53.909Z,1.00
2022-07-29T08:35:24.743Z,0.82
2022-07-29T08:37:54.764Z,0.80
2022-07-29T08:40:30.535Z,1.10
2022-07-29T08:43:08.467Z,0.95
2022-07-29T08:45:48.643Z,1.02
2022-07-29T08:48:21.350Z,0.75
2022-07-29T08:50:58.502Z,1.08
2022-07-29T08:53:31.915Z,1.00
2022-07-29T08:56:03.938Z,0.85
2022-07-29T08:58:38.280Z,0.90
2022-07-29T09:01:12.399Z,0.85
2022-07-29T09:03:45.220Z,0.88
2022-07-29T09:06:18.247Z,1.10
2022-07-29T09:08:48.636Z,1.05
2022-07-29T09:11:20.251Z,1.33
2022-07-29T09:16:43.845Z,1.10
2022-07-29T09:19:26.728Z,1.20
2022-07-29T09:22:03.224Z,1.00
2022-07-29T09:24:48.702Z,0.95
2022-07-29T09:27:30.191Z,1.27
2022-07-29T09:30:01.982Z,0.80
2022-07-29T09:32:32.407Z,1.58
2022-07-29T09:35:22.390Z,0.93
2022-07-29T09:37:53.084Z,1.00
2022-07-29T09:40:25.985Z,1.02
2022-07-29T09:42:58.589Z,0.95
2022-07-29T09:45:34.953Z,1.30
2022-07-29T09:48:19.765Z,1.02
2022-07-29T09:54:05.307Z,1.45
2022-07-29T09:56:45.283Z,2.00
2022-07-29T09:59:15.304Z,0.90
2022-07-29T10:01:46.085Z,1.58
2022-07-29T10:04:16.190Z,1.77
2022-07-29T10:07:04.882Z,0.95
2022-07-29T10:09:37.857Z,0.77
2022-07-29T10:12:15.030Z,0.90
2022-07-29T10:14:45.930Z,1.20
2022-07-29T10:17:15.875Z,1.03
2022-07-29T10:19:46.337Z,1.05
2022-07-29T10:22:31.156Z,1.27
2022-07-29T10:25:08.704Z,1.10
2022-07-29T10:27:39.128Z,1.20
2022-07-29T10:30:11.096Z,1.05
2022-07-29T10:33:13.406Z,1.30
2022-07-29T10:36:10.161Z,1.08
2022-07-29T10:38:57.673Z,1.45
2022-07-29T10:41:52.417Z,1.10
2022-07-29T10:44:25.158Z,0.98
2022-07-29T10:46:56.398Z,1.00
2022-07-29T10:49:30.706Z,1.00
2022-07-29T10:52:05.989Z,1.08
2022-07-29T10:54:52.332Z,1.40
2022-07-29T10:57:57.688Z,1.13
2022-07-29T11:00:34.331Z,1.33
2022-07-29T11:03:10.801Z,1.50
2022-07-29T11:06:00.308Z,1.23
2022-07-29T11:08:32.168Z,1.40
2022-07-29T11:11:36.991Z,1.55
2022-07-29T11:14:10.210Z,1.50
2022-07-29T11:17:06.269Z,1.50
2022-07-29T11:19:40.258Z,1.30
2022-07-29T11:22:16.614Z,1.50
2022-07-29T11:24:50.193Z,1.60
2022-07-29T11:27:23.409Z,1.58
2022-07-29T11:30:04.664Z,1.63
2022-07-29T11:32:41.974Z,1.65
2022-07-29T11:35:19.251Z,1.63
2022-07-29T11:38:31.762Z,1.45
2022-07-29T11:41:27.549Z,1.95
2022-07-29T11:43:59.969Z,1.35
2022-07-29T11:46:53.948Z,1.85
2022-07-29T11:49:31.700Z,1.75
2022-07-29T11:52:04.309Z,1.60
2022-07-29T11:54:38.920Z,1.65
2022-07-29T11:57:36.630Z,1.90
2022-07-29T12:00:12.702Z,1.92
2022-07-29T12:02:48.314Z,1.90
2022-07-29T12:05:36.039Z,1.52
2022-07-29T12:08:20.989Z,1.90
2022-07-29T12:10:52.778Z,1.88
2022-07-29T12:13:37.818Z,2.38
2022-07-29T12:16:08.731Z,1.90
2022-07-29T12:18:46.009Z,1.85
2022-07-29T12:24:01.777Z,1.95
2022-07-29T12:26:35.899Z,1.80
2022-07-29T12:29:11.240Z,1.90
2022-07-29T12:31:57.886Z,1.92
2022-07-29T12:34:32.355Z,1.83
2022-07-29T12:37:02.330Z,1.80
2022-07-29T12:39:32.790Z,1.60
2022-07-29T12:42:03.771Z,1.38
2022-07-29T12:47:19.406Z,2.10
2022-07-29T12:49:51.645Z,2.10
2022-07-29T12:54:12.689Z,1.85
2022-07-29T12:56:44.298Z,1.88
2022-07-29T12:59:20.300Z,1.80
2022-07-29T13:01:52.277Z,1.92
2022-07-29T13:04:29.718Z,1.88
2022-07-29T13:07:06.876Z,2.10
2022-07-29T13:09:46.751Z,1.92
2022-07-29T13:12:18.092Z,1.83
2022-07-29T13:14:51.172Z,1.73
2022-07-29T13:17:24.375Z,1.90
2022-07-29T13:20:07.304Z,1.88
2022-07-29T13:22:39.150Z,2.30
2022-07-29T13:25:12.140Z,1.88
2022-07-29T13:27:42.928Z,1.42
2022-07-29T13:30:14.486Z,1.83
2022-07-29T13:35:14.651Z,1.80
2022-07-29T13:37:45.452Z,2.10
2022-07-29T13:40:17.472Z,2.20
2022-07-29T13:42:47.582Z,1.90
2022-07-29T13:45:18.036Z,1.90
2022-07-29T13:47:49.291Z,2.25
2022-07-29T13:52:49.890Z,2.30
2022-07-29T13:55:21.454Z,2.53
2022-07-29T14:00:21.511Z,1.98
2022-07-29T14:02:51.516Z,2.25
2022-07-29T14:05:21.701Z,2.30
2022-07-29T14:07:51.893Z,2.58
2022-07-29T14:10:23.525Z,2.00
2022-07-29T14:12:53.585Z,2.28
2022-07-29T14:15:24.668Z,2.10
2022-07-29T14:17:54.698Z,2.10
2022-07-29T14:20:24.692Z,2.13
2022-07-29T14:22:54.639Z,1.98
2022-07-29T14:25:26.383Z,1.92
2022-07-29T14:27:56.738Z,1.83
2022-07-29T14:30:28.629Z,1.75
2022-07-29T14:32:58.554Z,1.60
2022-07-29T14:35:28.769Z,1.80
2022-07-29T14:37:58.790Z,2.13
2022-07-29T14:40:30.547Z,1.80
2022-07-29T14:43:00.629Z,1.83
2022-07-29T14:45:30.797Z,1.75
2022-07-29T14:48:01.273Z,2.13
2022-07-29T14:50:32.005Z,2.40
2022-07-29T14:53:02.564Z,1.73
2022-07-29T14:55:34.188Z,2.42
2022-07-29T15:54:05.213Z,2.22
2022-07-29T15:56:35.746Z,1.80
2022-07-29T15:59:05.848Z,1.60
2022-07-29T16:01:36.930Z,2.10
2022-07-29T16:04:12.691Z,2.08
2022-07-29T16:06:42.727Z,1.88
2022-07-29T16:09:14.856Z,2.08
2022-07-29T16:11:44.969Z,1.67
2022-07-29T16:14:15.284Z,2.15
2022-07-29T16:16:45.655Z,1.75
2022-07-29T16:19:15.752Z,2.00
2022-07-29T16:21:45.828Z,1.98
2022-07-29T16:24:17.332Z,2.03
2022-07-29T16:26:47.254Z,1.80
2022-07-29T16:29:18.512Z,1.88
2022-07-29T16:31:48.430Z,1.73
2022-07-29T16:34:18.392Z,4.25
2022-07-29T16:36:48.455Z,4.38
2022-07-29T16:39:19.729Z,3.33
2022-07-29T16:41:49.746Z,2.42
2022-07-29T16:44:19.600Z,2.10
2022-07-29T16:46:49.628Z,1.88
2022-07-29T16:49:20.025Z,1.75
2022-07-29T16:51:50.028Z,2.10
2022-07-29T16:54:21.577Z,3.08
2022-07-29T16:56:51.509Z,1.88
2022-07-29T16:59:21.404Z,2.40
2022-07-29T17:01:51.837Z,2.58
2022-07-29T17:04:22.936Z,2.38
2022-07-29T17:06:53.105Z,2.22
2022-07-29T17:09:24.495Z,2.13
2022-07-29T17:11:55.225Z,2.80
2022-07-29T17:14:28.032Z,2.53
2022-07-29T17:17:01.634Z,2.20
2022-07-29T17:19:36.571Z,2.10
2022-07-29T17:22:15.626Z,2.25
2022-07-29T17:24:51.272Z,2.22
2022-07-29T17:27:21.696Z,3.17
2022-07-29T17:29:51.646Z,3.72
2022-07-29T17:32:21.644Z,2.85
2022-07-29T17:34:51.849Z,3.03
2022-07-29T17:37:22.268Z,2.38
2022-07-29T17:39:57.317Z,2.30
2022-07-29T17:42:30.054Z,3.13
2022-07-29T17:45:00.150Z,2.50
2022-07-29T17:47:30.093Z,2.63
2022-07-29T17:50:00.119Z,2.47
2022-07-29T17:52:30.026Z,1.83
2022-07-29T17:55:01.687Z,2.55
2022-07-29T17:57:31.727Z,2.22
2022-07-29T18:00:01.637Z,2.35
2022-07-29T18:02:31.757Z,2.40
2022-07-29T18:05:01.916Z,2.33
2022-07-29T18:07:31.767Z,2.72
2022-07-29T18:10:03.477Z,2.70
2022-07-29T18:12:33.406Z,2.45
2022-07-29T18:15:03.349Z,2.30
2022-07-29T18:17:34.480Z,2.60
2022-07-29T18:20:23.169Z,2.10
2022-07-29T18:22:53.084Z,2.38
2022-07-29T18:25:24.751Z,2.85
2022-07-29T18:27:59.883Z,2.10
2022-07-29T18:30:31.344Z,2.70
2022-07-29T18:36:04.240Z,2.00
2022-07-29T18:38:42.429Z,2.53
2022-07-29T18:41:13.769Z,2.28
2022-07-29T18:43:43.733Z,2.70
2022-07-29T18:46:13.936Z,2.10
2022-07-29T18:48:44.265Z,2.47
2022-07-29T18:54:02.746Z,2.95
2022-07-29T18:56:32.607Z,2.42
2022-07-29T18:59:02.688Z,2.55
2022-07-29T19:01:32.858Z,2.70
2022-07-29T19:04:03.212Z,2.78
2022-07-29T19:06:33.195Z,3.00
2022-07-29T19:09:04.828Z,2.30
2022-07-29T19:11:34.672Z,2.08
2022-07-29T19:14:05.152Z,2.22
2022-07-29T19:16:35.245Z,2.78
2022-07-29T19:19:05.969Z,2.35
2022-07-29T19:21:36.292Z,2.70
2022-07-29T19:24:13.722Z,2.47
2022-07-29T19:26:47.099Z,3.00
2022-07-29T19:29:17.710Z,2.58
2022-07-29T19:31:47.628Z,2.70
2022-07-29T19:34:17.596Z,2.67
2022-07-29T19:36:47.713Z,3.10
2022-07-29T19:39:19.166Z,3.05
2022-07-29T19:42:05.824Z,2.70
2022-07-29T19:44:35.947Z,2.72
2022-07-29T19:47:05.828Z,3.22
2022-07-29T19:49:38.134Z,3.20
2022-07-29T19:52:09.024Z,3.28
2022-07-29T19:54:40.590Z,3.40
2022-07-29T19:57:10.408Z,2.80
2022-07-29T19:59:40.710Z,3.53
2022-07-29T20:02:12.611Z,3.28
2022-07-29T20:07:13.558Z,3.22
2022-07-29T20:09:46.263Z,3.00
2022-07-29T20:12:16.223Z,3.15
2022-07-29T20:14:46.168Z,3.30
2022-07-29T20:17:16.207Z,3.17
2022-07-29T20:19:46.228Z,3.60
2022-07-29T20:22:21.002Z,3.25
2022-07-29T20:24:52.888Z,2.80
2022-07-29T20:27:22.852Z,2.85
2022-07-29T20:29:52.786Z,2.55
2022-07-29T20:32:23.272Z,2.80
2022-07-29T20:34:53.206Z,3.20
2022-07-29T20:37:23.045Z,2.67
2022-07-29T20:39:54.574Z,3.03
2022-07-29T20:42:24.365Z,2.90
2022-07-29T20:44:54.327Z,2.47
2022-07-29T20:47:24.328Z,2.65
2022-07-29T20:49:54.555Z,2.38
2022-07-29T20:52:24.465Z,2.17
2022-07-29T20:54:55.868Z,2.50
2022-07-29T20:57:39.379Z,2.50
2022-07-29T21:00:12.516Z,2.53
2022-07-29T21:05:12.949Z,3.10
2022-07-29T21:07:43.092Z,2.90
2022-07-29T21:10:14.609Z,2.42
2022-07-29T21:12:44.526Z,3.03
2022-07-29T21:15:16.607Z,2.80
2022-07-29T21:17:48.513Z,2.42
2022-07-29T21:20:20.876Z,2.78
2022-07-29T21:22:50.910Z,2.50
2022-07-29T21:25:22.370Z,2.80
2022-07-29T21:28:09.377Z,3.00
2022-07-29T21:30:39.530Z,2.83
2022-07-29T21:33:09.573Z,2.67
2022-07-29T21:36:14.884Z,2.40
2022-07-29T21:38:30.333Z,2.53
2022-07-29T21:41:02.209Z,2.50
2022-07-29T21:43:32.490Z,2.67
2022-07-29T21:46:03.547Z,2.30
2022-07-29T21:48:33.405Z,3.05
2022-07-29T21:54:02.407Z,2.97
2022-07-29T21:56:32.892Z,2.50
2022-07-29T21:59:02.792Z,2.53
2022-07-29T22:01:39.335Z,2.63
2022-07-29T22:04:09.893Z,2.78
2022-07-29T22:06:39.963Z,2.75
2022-07-29T22:09:11.537Z,2.72
2022-07-29T22:11:42.309Z,3.08
2022-07-29T22:14:12.698Z,2.70
2022-07-29T22:16:42.973Z,3.17
2022-07-29T22:19:13.070Z,2.40
2022-07-29T22:21:43.866Z,2.92
2022-07-29T22:24:15.309Z,2.75
2022-07-29T22:26:45.168Z,2.42
2022-07-29T22:29:17.909Z,2.60
2022-07-29T22:31:47.913Z,2.50
2022-07-29T22:34:18.229Z,2.80
2022-07-29T22:36:48.047Z,3.30
2022-07-29T22:39:19.589Z,2.70
2022-07-29T22:41:49.547Z,2.90
2022-07-29T22:44:19.623Z,2.72
2022-07-29T22:46:49.468Z,2.92
2022-07-29T22:49:19.461Z,2.80
2022-07-29T22:51:49.390Z,2.65
2022-07-29T22:54:21.008Z,2.38
2022-07-29T22:56:50.896Z,2.55
2022-07-29T22:59:22.428Z,3.03
2022-07-29T23:01:52.258Z,2.90
2022-07-29T23:04:24.114Z,2.75
2022-07-29T23:06:54.126Z,2.80
2022-07-29T23:09:25.593Z,2.55
2022-07-29T23:11:55.426Z,2.43
2022-07-29T23:14:25.406Z,3.42
2022-07-29T23:16:55.348Z,3.05
2022-07-29T23:19:25.319Z,3.17
2022-07-29T23:21:55.268Z,3.17
2022-07-29T23:24:26.689Z,3.58
2022-07-29T23:26:56.645Z,2.67
2022-07-29T23:29:26.724Z,2.42
2022-07-29T23:31:56.551Z,2.90
2022-07-29T23:34:26.628Z,3.10
2022-07-29T23:36:56.537Z,2.97
2022-07-29T23:39:28.127Z,2.45
2022-07-29T23:41:58.114Z,2.65
2022-07-29T23:44:28.230Z,2.97
2022-07-29T23:46:58.475Z,2.90
2022-07-29T23:49:28.731Z,3.55
2022-07-29T23:51:58.690Z,2.55
2022-07-29T23:54:30.126Z,3.15
2022-07-29T23:57:00.468Z,3.13
2022-07-29T23:59:30.583Z,2.90
